Gakona, Alaska
Current Conditions -  °F | °C
As of 7:53 PM on Saturday 22 Nov 2014 (Local Time) from PAOR Reporting Station
Scattered Clouds Scattered Clouds  
Wind Chill: -6°   Ceiling: Unl
Heat Index: -6°   Visibility: 10mi
Dew Point: -11°   Wind: 3mph
Humidity: 79%   Direction: 200°SSW
Pressure: 29.37"   Gusts: NA
Location:  62.43°N, 142.97°W
Report Text: PAOR 230453Z 20003KT 10SM FEW090 SCT180 M21/M24 A2937 RMK AO2 SLP005 T12111239
Loading
Personal Weather Stations






























Interactive Weather Map New forecast layout! Learn more

10-Day Weather Forecast

Advertisements
Track Severe Weather on mobile